sensor_id;sensor_type;location;lat;lon;timestamp;pressure;altitude;pressure_sealevel;temperature;humidity
62055;BME280;48653;51.742;-1.256;2023-09-30T00:01:50;101864.41;;;14.89;49.39
62055;BME280;48653;51.742;-1.256;2023-09-30T00:04:15;101866.01;;;15.04;48.88
62055;BME280;48653;51.742;-1.256;2023-09-30T00:06:41;101868.03;;;15.44;48.49
62055;BME280;48653;51.742;-1.256;2023-09-30T00:09:06;101871.01;;;15.07;49.15
62055;BME280;48653;51.742;-1.256;2023-09-30T00:11:31;101877.08;;;14.79;49.10
62055;BME280;48653;51.742;-1.256;2023-09-30T00:13:56;101881.49;;;15.06;48.70
62055;BME280;48653;51.742;-1.256;2023-09-30T00:16:21;101884.52;;;14.67;49.16
62055;BME280;48653;51.742;-1.256;2023-09-30T00:18:46;101882.76;;;14.94;48.78
62055;BME280;48653;51.742;-1.256;2023-09-30T00:21:12;101876.93;;;14.77;49.14
62055;BME280;48653;51.742;-1.256;2023-09-30T00:23:37;101878.22;;;15.14;49.00
62055;BME280;48653;51.742;-1.256;2023-09-30T00:26:02;101880.62;;;14.79;49.34
62055;BME280;48653;51.742;-1.256;2023-09-30T00:28:27;101879.37;;;14.91;49.04
62055;BME280;48653;51.742;-1.256;2023-09-30T00:30:52;101884.32;;;15.01;48.83
62055;BME280;48653;51.742;-1.256;2023-09-30T00:33:18;101889.06;;;14.98;48.84
62055;BME280;48653;51.742;-1.256;2023-09-30T00:35:43;101887.79;;;15.17;49.41
62055;BME280;48653;51.742;-1.256;2023-09-30T00:38:09;101889.21;;;14.85;49.19
62055;BME280;48653;51.742;-1.256;2023-09-30T00:40:33;101888.32;;;14.76;49.67
62055;BME280;48653;51.742;-1.256;2023-09-30T00:42:59;101884.75;;;14.55;50.20
62055;BME280;48653;51.742;-1.256;2023-09-30T00:45:24;101894.61;;;14.33;49.60
62055;BME280;48653;51.742;-1.256;2023-09-30T00:47:49;101905.73;;;14.61;50.37
62055;BME280;48653;51.742;-1.256;2023-09-30T00:50:14;101894.80;;;14.31;50.14
62055;BME280;48653;51.742;-1.256;2023-09-30T00:52:40;101896.75;;;14.32;50.28
62055;BME280;48653;51.742;-1.256;2023-09-30T00:55:05;101890.32;;;14.62;50.43
62055;BME280;48653;51.742;-1.256;2023-09-30T00:57:31;101881.94;;;14.27;50.52
62055;BME280;48653;51.742;-1.256;2023-09-30T00:59:57;101884.26;;;14.33;50.33
62055;BME280;48653;51.742;-1.256;2023-09-30T01:02:22;101882.30;;;14.47;50.06
62055;BME280;48653;51.742;-1.256;2023-09-30T01:04:47;101882.91;;;14.28;50.11
62055;BME280;48653;51.742;-1.256;2023-09-30T01:07:11;101885.24;;;14.37;50.41
62055;BME280;48653;51.742;-1.256;2023-09-30T01:09:36;101886.92;;;14.42;50.31
62055;BME280;48653;51.742;-1.256;2023-09-30T01:12:02;101878.77;;;14.29;50.19
62055;BME280;48653;51.742;-1.256;2023-09-30T01:14:28;101874.39;;;14.57;49.74
62055;BME280;48653;51.742;-1.256;2023-09-30T01:16:52;101876.77;;;14.69;50.59
62055;BME280;48653;51.742;-1.256;2023-09-30T01:19:17;101877.39;;;14.45;50.38
62055;BME280;48653;51.742;-1.256;2023-09-30T01:21:43;101877.03;;;14.61;50.15
62055;BME280;48653;51.742;-1.256;2023-09-30T01:24:08;101878.62;;;14.66;50.04
62055;BME280;48653;51.742;-1.256;2023-09-30T01:26:33;101877.83;;;14.25;50.88
62055;BME280;48653;51.742;-1.256;2023-09-30T01:28:59;101880.77;;;14.52;50.62
62055;BME280;48653;51.742;-1.256;2023-09-30T01:31:24;101878.58;;;13.93;51.36
62055;BME280;48653;51.742;-1.256;2023-09-30T01:33:49;101878.35;;;14.69;50.93
62055;BME280;48653;51.742;-1.256;2023-09-30T01:36:14;101875.09;;;14.04;51.29
62055;BME280;48653;51.742;-1.256;2023-09-30T01:38:40;101878.46;;;14.12;51.52
62055;BME280;48653;51.742;-1.256;2023-09-30T01:41:05;101877.08;;;14.46;50.50
62055;BME280;48653;51.742;-1.256;2023-09-30T01:43:31;101873.07;;;14.47;50.33
62055;BME280;48653;51.742;-1.256;2023-09-30T01:45:56;101875.12;;;14.14;50.87
62055;BME280;48653;51.742;-1.256;2023-09-30T01:48:21;101870.90;;;14.27;50.87
62055;BME280;48653;51.742;-1.256;2023-09-30T01:50:46;101873.24;;;14.16;51.14
62055;BME280;48653;51.742;-1.256;2023-09-30T01:53:11;101873.59;;;14.37;50.83
62055;BME280;48653;51.742;-1.256;2023-09-30T01:55:36;101862.60;;;14.33;50.87
62055;BME280;48653;51.742;-1.256;2023-09-30T01:58:02;101859.05;;;14.23;50.31
62055;BME280;48653;51.742;-1.256;2023-09-30T02:00:26;101859.00;;;14.38;51.09
62055;BME280;48653;51.742;-1.256;2023-09-30T02:02:51;101852.60;;;14.23;50.43
62055;BME280;48653;51.742;-1.256;2023-09-30T02:05:17;101851.84;;;14.15;50.07
62055;BME280;48653;51.742;-1.256;2023-09-30T02:07:42;101841.09;;;14.53;49.76
62055;BME280;48653;51.742;-1.256;2023-09-30T02:10:08;101835.10;;;14.43;49.73
62055;BME280;48653;51.742;-1.256;2023-09-30T02:12:34;101832.93;;;14.38;49.38
62055;BME280;48653;51.742;-1.256;2023-09-30T02:14:58;101839.80;;;14.66;49.91
62055;BME280;48653;51.742;-1.256;2023-09-30T02:17:23;101843.20;;;14.86;49.82
62055;BME280;48653;51.742;-1.256;2023-09-30T02:19:48;101848.72;;;14.66;49.80
62055;BME280;48653;51.742;-1.256;2023-09-30T02:22:13;101847.65;;;14.83;49.38
62055;BME280;48653;51.742;-1.256;2023-09-30T02:24:38;101843.21;;;14.68;49.23
62055;BME280;48653;51.742;-1.256;2023-09-30T02:27:04;101837.76;;;14.63;49.09
62055;BME280;48653;51.742;-1.256;2023-09-30T02:29:29;101830.55;;;14.91;48.80
62055;BME280;48653;51.742;-1.256;2023-09-30T02:31:54;101835.80;;;14.84;49.32
62055;BME280;48653;51.742;-1.256;2023-09-30T02:34:20;101834.29;;;14.68;49.52
62055;BME280;48653;51.742;-1.256;2023-09-30T02:36:45;101830.95;;;14.53;50.62
62055;BME280;48653;51.742;-1.256;2023-09-30T02:39:11;101838.64;;;14.46;50.28
62055;BME280;48653;51.742;-1.256;2023-09-30T02:41:35;101843.09;;;14.69;50.76
62055;BME280;48653;51.742;-1.256;2023-09-30T02:44:00;101833.89;;;14.20;50.65
62055;BME280;48653;51.742;-1.256;2023-09-30T02:46:26;101842.48;;;14.68;50.65
62055;BME280;48653;51.742;-1.256;2023-09-30T02:48:51;101848.37;;;14.31;50.84
62055;BME280;48653;51.742;-1.256;2023-09-30T02:51:16;101843.02;;;14.26;50.24
62055;BME280;48653;51.742;-1.256;2023-09-30T02:53:41;101842.62;;;14.29;50.84
62055;BME280;48653;51.742;-1.256;2023-09-30T02:56:06;101839.31;;;14.32;50.87
62055;BME280;48653;51.742;-1.256;2023-09-30T02:58:31;101835.75;;;14.16;50.96
62055;BME280;48653;51.742;-1.256;2023-09-30T03:00:57;101837.06;;;14.54;51.10
62055;BME280;48653;51.742;-1.256;2023-09-30T03:03:22;101838.33;;;13.99;51.42
62055;BME280;48653;51.742;-1.256;2023-09-30T03:05:47;101843.27;;;14.22;51.33
62055;BME280;48653;51.742;-1.256;2023-09-30T03:08:13;101845.29;;;14.04;51.45
62055;BME280;48653;51.742;-1.256;2023-09-30T03:10:37;101853.59;;;13.84;51.44
62055;BME280;48653;51.742;-1.256;2023-09-30T03:13:03;101864.14;;;13.70;50.97
62055;BME280;48653;51.742;-1.256;2023-09-30T03:15:27;101853.97;;;14.27;51.42
62055;BME280;48653;51.742;-1.256;2023-09-30T03:17:52;101844.12;;;14.12;51.05
62055;BME280;48653;51.742;-1.256;2023-09-30T03:20:18;101850.74;;;14.00;50.93
62055;BME280;48653;51.742;-1.256;2023-09-30T03:22:43;101853.02;;;13.88;51.02
62055;BME280;48653;51.742;-1.256;2023-09-30T03:25:09;101853.32;;;14.19;51.37
62055;BME280;48653;51.742;-1.256;2023-09-30T03:27:33;101841.42;;;14.47;50.82
62055;BME280;48653;51.742;-1.256;2023-09-30T03:29:58;101833.80;;;14.22;51.52
62055;BME280;48653;51.742;-1.256;2023-09-30T03:32:23;101830.70;;;14.18;51.67
62055;BME280;48653;51.742;-1.256;2023-09-30T03:34:48;101833.14;;;14.04;51.53
62055;BME280;48653;51.742;-1.256;2023-09-30T03:37:13;101831.58;;;14.32;51.56
62055;BME280;48653;51.742;-1.256;2023-09-30T03:39:38;101825.76;;;14.03;51.18
62055;BME280;48653;51.742;-1.256;2023-09-30T03:42:03;101828.65;;;13.76;51.40
62055;BME280;48653;51.742;-1.256;2023-09-30T03:44:29;101832.31;;;14.02;51.25
62055;BME280;48653;51.742;-1.256;2023-09-30T03:46:54;101832.93;;;13.70;51.52
62055;BME280;48653;51.742;-1.256;2023-09-30T03:49:20;101833.24;;;13.77;50.58
62055;BME280;48653;51.742;-1.256;2023-09-30T03:51:44;101827.24;;;13.96;51.01
62055;BME280;48653;51.742;-1.256;2023-09-30T03:54:09;101823.67;;;14.12;50.11
62055;BME280;48653;51.742;-1.256;2023-09-30T03:56:34;101817.82;;;14.03;50.32
62055;BME280;48653;51.742;-1.256;2023-09-30T03:59:00;101808.64;;;14.01;49.79
62055;BME280;48653;51.742;-1.256;2023-09-30T04:01:25;101815.79;;;14.04;49.44
62055;BME280;48653;51.742;-1.256;2023-09-30T04:03:50;101829.70;;;14.32;50.10
62055;BME280;48653;51.742;-1.256;2023-09-30T04:06:16;101821.01;;;14.04;50.00
62055;BME280;48653;51.742;-1.256;2023-09-30T04:08:40;101822.59;;;14.15;50.16
62055;BME280;48653;51.742;-1.256;2023-09-30T04:11:06;101826.97;;;13.91;50.05
62055;BME280;48653;51.742;-1.256;2023-09-30T04:13:32;101822.40;;;13.75;50.34
62055;BME280;48653;51.742;-1.256;2023-09-30T04:15:58;101821.06;;;13.75;50.67
62055;BME280;48653;51.742;-1.256;2023-09-30T04:18:22;101828.84;;;13.75;51.00
62055;BME280;48653;51.742;-1.256;2023-09-30T04:20:48;101830.89;;;14.12;49.97
62055;BME280;48653;51.742;-1.256;2023-09-30T04:23:13;101830.71;;;13.78;50.35
62055;BME280;48653;51.742;-1.256;2023-09-30T04:25:38;101833.32;;;13.68;49.83
62055;BME280;48653;51.742;-1.256;2023-09-30T04:28:04;101832.56;;;13.89;49.68
62055;BME280;48653;51.742;-1.256;2023-09-30T04:30:29;101831.43;;;13.99;49.33
62055;BME280;48653;51.742;-1.256;2023-09-30T04:32:54;101831.11;;;13.84;49.77
62055;BME280;48653;51.742;-1.256;2023-09-30T04:35:20;101834.87;;;13.80;50.17
62055;BME280;48653;51.742;-1.256;2023-09-30T04:37:44;101839.39;;;13.70;50.30
62055;BME280;48653;51.742;-1.256;2023-09-30T04:40:10;101847.26;;;13.79;50.46
62055;BME280;48653;51.742;-1.256;2023-09-30T04:42:34;101848.80;;;13.71;50.87
62055;BME280;48653;51.742;-1.256;2023-09-30T04:44:59;101850.70;;;13.46;50.90
62055;BME280;48653;51.742;-1.256;2023-09-30T04:47:38;101851.01;;;13.29;50.93
62055;BME280;48653;51.742;-1.256;2023-09-30T04:49:49;101847.71;;;13.52;51.06
62055;BME280;48653;51.742;-1.256;2023-09-30T04:52:14;101832.26;;;13.36;51.15
62055;BME280;48653;51.742;-1.256;2023-09-30T04:54:39;101814.52;;;13.37;51.00
62055;BME280;48653;51.742;-1.256;2023-09-30T04:57:04;101816.06;;;13.41;50.68
62055;BME280;48653;51.742;-1.256;2023-09-30T04:59:30;101817.83;;;13.26;50.77
62055;BME280;48653;51.742;-1.256;2023-09-30T05:01:55;101817.94;;;13.23;51.02
62055;BME280;48653;51.742;-1.256;2023-09-30T05:04:20;101810.03;;;13.28;50.69
62055;BME280;48653;51.742;-1.256;2023-09-30T05:06:45;101815.23;;;13.33;51.18
62055;BME280;48653;51.742;-1.256;2023-09-30T05:09:10;101816.00;;;13.26;51.10
62055;BME280;48653;51.742;-1.256;2023-09-30T05:11:36;101824.06;;;13.18;51.14
62055;BME280;48653;51.742;-1.256;2023-09-30T05:14:01;101821.40;;;13.62;51.11
62055;BME280;48653;51.742;-1.256;2023-09-30T05:16:26;101816.56;;;13.05;51.45
62055;BME280;48653;51.742;-1.256;2023-09-30T05:18:51;101812.76;;;12.92;51.89
62055;BME280;48653;51.742;-1.256;2023-09-30T05:21:16;101802.72;;;13.20;51.34
62055;BME280;48653;51.742;-1.256;2023-09-30T05:23:43;101802.51;;;13.18;50.48
62055;BME280;48653;51.742;-1.256;2023-09-30T05:26:07;101803.71;;;13.43;50.41
62055;BME280;48653;51.742;-1.256;2023-09-30T05:28:32;101797.24;;;13.07;50.61
62055;BME280;48653;51.742;-1.256;2023-09-30T05:31:00;101795.91;;;12.85;50.76
62055;BME280;48653;51.742;-1.256;2023-09-30T05:33:22;101799.87;;;12.96;50.58
62055;BME280;48653;51.742;-1.256;2023-09-30T05:35:47;101811.71;;;12.95;50.66
62055;BME280;48653;51.742;-1.256;2023-09-30T05:38:12;101821.93;;;12.95;50.69
62055;BME280;48653;51.742;-1.256;2023-09-30T05:40:37;101825.84;;;12.98;50.37
62055;BME280;48653;51.742;-1.256;2023-09-30T05:43:03;101832.13;;;12.75;50.59
62055;BME280;48653;51.742;-1.256;2023-09-30T05:45:31;101839.87;;;12.54;50.81
62055;BME280;48653;51.742;-1.256;2023-09-30T05:47:53;101851.79;;;12.79;50.44
62055;BME280;48653;51.742;-1.256;2023-09-30T05:50:18;101861.90;;;12.82;50.71
62055;BME280;48653;51.742;-1.256;2023-09-30T05:52:43;101863.93;;;12.80;50.71
62055;BME280;48653;51.742;-1.256;2023-09-30T05:55:09;101866.47;;;12.68;50.84
62055;BME280;48653;51.742;-1.256;2023-09-30T05:57:33;101866.02;;;12.65;50.71
62055;BME280;48653;51.742;-1.256;2023-09-30T05:59:58;101871.79;;;12.35;50.66
62055;BME280;48653;51.742;-1.256;2023-09-30T06:02:23;101861.14;;;12.47;50.99
62055;BME280;48653;51.742;-1.256;2023-09-30T06:04:48;101846.87;;;12.68;51.60
62055;BME280;48653;51.742;-1.256;2023-09-30T06:07:13;101861.40;;;12.07;51.30
62055;BME280;48653;51.742;-1.256;2023-09-30T06:09:38;101856.96;;;12.41;50.48
62055;BME280;48653;51.742;-1.256;2023-09-30T06:12:03;101852.35;;;12.61;51.01
62055;BME280;48653;51.742;-1.256;2023-09-30T06:14:28;101860.24;;;12.68;51.26
62055;BME280;48653;51.742;-1.256;2023-09-30T06:16:53;101871.97;;;12.41;51.33
62055;BME280;48653;51.742;-1.256;2023-09-30T06:19:18;101878.96;;;12.45;50.46
62055;BME280;48653;51.742;-1.256;2023-09-30T06:21:44;101878.44;;;12.48;50.27
62055;BME280;48653;51.742;-1.256;2023-09-30T06:24:09;101879.25;;;12.17;50.58
62055;BME280;48653;51.742;-1.256;2023-09-30T06:26:35;101872.04;;;12.36;50.39
62055;BME280;48653;51.742;-1.256;2023-09-30T06:28:59;101862.06;;;12.72;50.12
62055;BME280;48653;51.742;-1.256;2023-09-30T06:31:24;101856.64;;;12.85;50.23
62055;BME280;48653;51.742;-1.256;2023-09-30T06:33:49;101846.09;;;12.75;50.56
62055;BME280;48653;51.742;-1.256;2023-09-30T06:36:19;101841.81;;;12.90;51.18
62055;BME280;48653;51.742;-1.256;2023-09-30T06:38:40;101854.54;;;12.27;52.47
62055;BME280;48653;51.742;-1.256;2023-09-30T06:41:05;101858.28;;;12.40;51.82
62055;BME280;48653;51.742;-1.256;2023-09-30T06:43:30;101864.13;;;12.47;51.37
62055;BME280;48653;51.742;-1.256;2023-09-30T06:45:56;101868.94;;;12.47;51.28
62055;BME280;48653;51.742;-1.256;2023-09-30T06:48:21;101876.42;;;12.47;51.33
62055;BME280;48653;51.742;-1.256;2023-09-30T06:50:47;101883.84;;;12.58;50.53
62055;BME280;48653;51.742;-1.256;2023-09-30T06:53:11;101883.22;;;12.84;50.23
62055;BME280;48653;51.742;-1.256;2023-09-30T06:55:38;101891.85;;;13.02;50.58
62055;BME280;48653;51.742;-1.256;2023-09-30T06:58:02;101898.23;;;12.55;50.57
62055;BME280;48653;51.742;-1.256;2023-09-30T07:00:26;101901.13;;;13.06;50.65
62055;BME280;48653;51.742;-1.256;2023-09-30T07:02:51;101900.20;;;13.09;50.61
62055;BME280;48653;51.742;-1.256;2023-09-30T07:05:17;101892.23;;;13.26;50.37
62055;BME280;48653;51.742;-1.256;2023-09-30T07:07:42;101888.53;;;13.42;50.64
62055;BME280;48653;51.742;-1.256;2023-09-30T07:10:08;101880.17;;;13.40;50.74
62055;BME280;48653;51.742;-1.256;2023-09-30T07:12:32;101879.88;;;13.03;51.69
62055;BME280;48653;51.742;-1.256;2023-09-30T07:14:58;101879.32;;;12.98;51.31
62055;BME280;48653;51.742;-1.256;2023-09-30T07:17:22;101876.27;;;13.56;50.85
62055;BME280;48653;51.742;-1.256;2023-09-30T07:19:47;101878.27;;;13.02;52.14
62055;BME280;48653;51.742;-1.256;2023-09-30T07:22:12;101881.92;;;12.84;52.79
62055;BME280;48653;51.742;-1.256;2023-09-30T07:24:37;101885.55;;;13.06;52.11
62055;BME280;48653;51.742;-1.256;2023-09-30T07:27:02;101895.40;;;13.09;52.28
62055;BME280;48653;51.742;-1.256;2023-09-30T07:29:27;101895.73;;;13.22;52.49
62055;BME280;48653;51.742;-1.256;2023-09-30T07:31:53;101885.55;;;13.65;52.18
62055;BME280;48653;51.742;-1.256;2023-09-30T07:34:18;101884.09;;;13.83;52.10
62055;BME280;48653;51.742;-1.256;2023-09-30T07:36:43;101877.55;;;13.11;53.21
62055;BME280;48653;51.742;-1.256;2023-09-30T07:39:08;101879.68;;;13.55;52.86
62055;BME280;48653;51.742;-1.256;2023-09-30T07:41:34;101886.01;;;13.09;54.20
62055;BME280;48653;51.742;-1.256;2023-09-30T07:43:58;101894.11;;;13.18;53.83
62055;BME280;48653;51.742;-1.256;2023-09-30T07:46:23;101897.28;;;13.50;52.77
62055;BME280;48653;51.742;-1.256;2023-09-30T07:48:48;101896.64;;;13.10;53.85
62055;BME280;48653;51.742;-1.256;2023-09-30T07:51:13;101899.06;;;13.65;52.41
62055;BME280;48653;51.742;-1.256;2023-09-30T07:53:39;101902.21;;;13.32;53.40
62055;BME280;48653;51.742;-1.256;2023-09-30T07:56:04;101898.92;;;13.64;53.03
62055;BME280;48653;51.742;-1.256;2023-09-30T07:58:29;101906.14;;;13.65;53.09
62055;BME280;48653;51.742;-1.256;2023-09-30T08:00:54;101911.56;;;14.11;52.44
62055;BME280;48653;51.742;-1.256;2023-09-30T08:03:20;101914.59;;;13.94;52.42
62055;BME280;48653;51.742;-1.256;2023-09-30T08:05:45;101889.85;;;13.93;53.31
62055;BME280;48653;51.742;-1.256;2023-09-30T08:08:11;101867.74;;;14.24;53.01
62055;BME280;48653;51.742;-1.256;2023-09-30T08:10:37;101869.45;;;13.40;54.90
62055;BME280;48653;51.742;-1.256;2023-09-30T08:13:03;101874.65;;;13.20;56.25
62055;BME280;48653;51.742;-1.256;2023-09-30T08:15:28;101875.49;;;12.50;57.16
62055;BME280;48653;51.742;-1.256;2023-09-30T08:17:53;101875.54;;;12.95;57.10
62055;BME280;48653;51.742;-1.256;2023-09-30T08:20:18;101885.14;;;13.75;55.09
62055;BME280;48653;51.742;-1.256;2023-09-30T08:22:45;101891.01;;;13.88;54.89
62055;BME280;48653;51.742;-1.256;2023-09-30T08:25:09;101898.84;;;14.71;53.31
62055;BME280;48653;51.742;-1.256;2023-09-30T08:27:35;101899.68;;;15.04;52.61
62055;BME280;48653;51.742;-1.256;2023-09-30T08:30:00;101900.72;;;15.35;51.70
62055;BME280;48653;51.742;-1.256;2023-09-30T08:32:24;101893.80;;;14.91;52.77
62055;BME280;48653;51.742;-1.256;2023-09-30T08:34:50;101889.77;;;14.76;52.51
62055;BME280;48653;51.742;-1.256;2023-09-30T08:37:14;101888.94;;;14.79;52.79
62055;BME280;48653;51.742;-1.256;2023-09-30T08:39:40;101888.82;;;14.81;53.35
62055;BME280;48653;51.742;-1.256;2023-09-30T08:42:09;101890.69;;;15.84;52.14
62055;BME280;48653;51.742;-1.256;2023-09-30T08:44:30;101894.79;;;15.06;52.65
62055;BME280;48653;51.742;-1.256;2023-09-30T08:46:56;101888.37;;;15.62;52.47
62055;BME280;48653;51.742;-1.256;2023-09-30T08:49:21;101884.65;;;16.07;50.85
62055;BME280;48653;51.742;-1.256;2023-09-30T08:51:48;101893.96;;;16.32;51.20
62055;BME280;48653;51.742;-1.256;2023-09-30T08:54:11;101904.29;;;15.63;53.33
62055;BME280;48653;51.742;-1.256;2023-09-30T08:56:38;101897.64;;;16.64;51.06
62055;BME280;48653;51.742;-1.256;2023-09-30T08:59:03;101887.06;;;15.28;52.66
62055;BME280;48653;51.742;-1.256;2023-09-30T09:01:28;101878.06;;;15.91;51.63
62055;BME280;48653;51.742;-1.256;2023-09-30T09:03:52;101877.63;;;15.56;52.86
62055;BME280;48653;51.742;-1.256;2023-09-30T09:06:17;101864.05;;;16.05;52.57
62055;BME280;48653;51.742;-1.256;2023-09-30T09:08:42;101867.54;;;16.40;52.45
62055;BME280;48653;51.742;-1.256;2023-09-30T09:11:08;101871.42;;;16.62;51.13
62055;BME280;48653;51.742;-1.256;2023-09-30T09:13:46;101868.95;;;16.39;50.24
62055;BME280;48653;51.742;-1.256;2023-09-30T09:16:07;101871.09;;;16.13;52.16
62055;BME280;48653;51.742;-1.256;2023-09-30T09:18:32;101870.50;;;16.47;50.42
62055;BME280;48653;51.742;-1.256;2023-09-30T09:21:00;101872.18;;;16.84;49.63
62055;BME280;48653;51.742;-1.256;2023-09-30T09:23:15;101877.55;;;16.97;48.78
62055;BME280;48653;51.742;-1.256;2023-09-30T09:25:39;101879.45;;;17.27;48.22
62055;BME280;48653;51.742;-1.256;2023-09-30T09:28:04;101885.99;;;17.67;48.27
62055;BME280;48653;51.742;-1.256;2023-09-30T09:30:30;101888.52;;;17.33;47.50
62055;BME280;48653;51.742;-1.256;2023-09-30T09:32:59;101888.90;;;17.46;46.59
62055;BME280;48653;51.742;-1.256;2023-09-30T09:35:20;101883.11;;;17.76;46.28
62055;BME280;48653;51.742;-1.256;2023-09-30T09:40:10;101878.53;;;17.76;46.48
62055;BME280;48653;51.742;-1.256;2023-09-30T09:42:34;101876.62;;;17.13;47.06
62055;BME280;48653;51.742;-1.256;2023-09-30T09:45:00;101882.15;;;17.35;46.69
62055;BME280;48653;51.742;-1.256;2023-09-30T09:47:25;101880.97;;;17.89;46.66
62055;BME280;48653;51.742;-1.256;2023-09-30T09:49:50;101891.61;;;17.37;46.30
62055;BME280;48653;51.742;-1.256;2023-09-30T09:52:15;101890.94;;;17.12;48.04
62055;BME280;48653;51.742;-1.256;2023-09-30T09:54:40;101882.38;;;17.50;47.10
62055;BME280;48653;51.742;-1.256;2023-09-30T09:57:06;101876.19;;;15.94;48.70
62055;BME280;48653;51.742;-1.256;2023-09-30T09:59:30;101874.86;;;17.22;47.38
62055;BME280;48653;51.742;-1.256;2023-09-30T10:01:55;101876.00;;;16.96;47.45
62055;BME280;48653;51.742;-1.256;2023-09-30T10:04:20;101875.91;;;16.98;46.88
62055;BME280;48653;51.742;-1.256;2023-09-30T10:06:46;101874.45;;;17.29;47.38
62055;BME280;48653;51.742;-1.256;2023-09-30T10:09:11;101871.45;;;17.68;46.97
62055;BME280;48653;51.742;-1.256;2023-09-30T10:11:35;101871.09;;;17.94;46.25
62055;BME280;48653;51.742;-1.256;2023-09-30T10:14:01;101879.46;;;18.49;46.35
62055;BME280;48653;51.742;-1.256;2023-09-30T10:23:42;101868.69;;;18.62;42.88
62055;BME280;48653;51.742;-1.256;2023-09-30T10:26:15;101865.28;;;18.79;43.40
62055;BME280;48653;51.742;-1.256;2023-09-30T10:28:37;101860.06;;;19.07;42.75
62055;BME280;48653;51.742;-1.256;2023-09-30T10:31:08;101849.08;;;18.81;42.23
62055;BME280;48653;51.742;-1.256;2023-09-30T10:33:21;101837.17;;;18.15;43.56
62055;BME280;48653;51.742;-1.256;2023-09-30T10:35:47;101839.82;;;18.88;42.19
62055;BME280;48653;51.742;-1.256;2023-09-30T10:40:36;101830.65;;;18.96;41.94
62055;BME280;48653;51.742;-1.256;2023-09-30T10:43:01;101826.73;;;19.18;42.75
62055;BME280;48653;51.742;-1.256;2023-09-30T10:45:44;101815.56;;;19.06;41.13
62055;BME280;48653;51.742;-1.256;2023-09-30T10:47:52;101813.27;;;18.35;41.71
62055;BME280;48653;51.742;-1.256;2023-09-30T10:52:43;101816.73;;;17.81;43.48
62055;BME280;48653;51.742;-1.256;2023-09-30T10:55:11;101815.45;;;18.80;41.51
62055;BME280;48653;51.742;-1.256;2023-09-30T10:57:34;101807.17;;;19.29;40.51
62055;BME280;48653;51.742;-1.256;2023-09-30T11:00:09;101804.29;;;18.06;41.13
62055;BME280;48653;51.742;-1.256;2023-09-30T11:02:26;101796.72;;;18.38;40.88
62055;BME280;48653;51.742;-1.256;2023-09-30T11:04:52;101787.26;;;18.30;41.27
62055;BME280;48653;51.742;-1.256;2023-09-30T11:07:22;101776.63;;;18.01;42.24
62055;BME280;48653;51.742;-1.256;2023-09-30T11:09:42;101780.61;;;17.45;43.62
62055;BME280;48653;51.742;-1.256;2023-09-30T11:12:13;101787.29;;;16.31;46.64
62055;BME280;48653;51.742;-1.256;2023-09-30T11:14:32;101789.47;;;17.57;44.91
62055;BME280;48653;51.742;-1.256;2023-09-30T11:16:58;101790.40;;;17.40;44.95
62055;BME280;48653;51.742;-1.256;2023-09-30T11:19:22;101792.90;;;18.23;43.01
62055;BME280;48653;51.742;-1.256;2023-09-30T11:21:48;101791.45;;;16.60;46.44
62055;BME280;48653;51.742;-1.256;2023-09-30T11:24:13;101789.75;;;17.31;46.30
62055;BME280;48653;51.742;-1.256;2023-09-30T11:26:38;101790.51;;;17.23;45.45
62055;BME280;48653;51.742;-1.256;2023-09-30T11:29:06;101792.22;;;17.17;45.50
62055;BME280;48653;51.742;-1.256;2023-09-30T11:31:28;101788.28;;;17.09;46.14
62055;BME280;48653;51.742;-1.256;2023-09-30T11:33:53;101775.69;;;16.48;46.29
62055;BME280;48653;51.742;-1.256;2023-09-30T11:36:19;101782.69;;;18.54;44.84
62055;BME280;48653;51.742;-1.256;2023-09-30T11:38:45;101775.77;;;19.33;41.69
62055;BME280;48653;51.742;-1.256;2023-09-30T11:41:08;101775.10;;;19.92;42.29
62055;BME280;48653;51.742;-1.256;2023-09-30T11:43:34;101771.30;;;19.64;40.38
62055;BME280;48653;51.742;-1.256;2023-09-30T11:46:06;101769.33;;;20.78;39.33
62055;BME280;48653;51.742;-1.256;2023-09-30T11:48:26;101773.80;;;21.22;39.88
62055;BME280;48653;51.742;-1.256;2023-09-30T11:50:52;101766.07;;;20.49;39.03
62055;BME280;48653;51.742;-1.256;2023-09-30T11:53:18;101754.48;;;20.22;39.88
62055;BME280;48653;51.742;-1.256;2023-09-30T11:55:43;101758.45;;;18.73;41.93
62055;BME280;48653;51.742;-1.256;2023-09-30T11:58:09;101757.17;;;19.96;40.95
62055;BME280;48653;51.742;-1.256;2023-09-30T12:00:35;101749.94;;;20.38;40.24
62055;BME280;48653;51.742;-1.256;2023-09-30T12:03:01;101748.78;;;20.45;39.27
62055;BME280;48653;51.742;-1.256;2023-09-30T12:05:27;101732.15;;;19.02;41.33
62055;BME280;48653;51.742;-1.256;2023-09-30T12:07:53;101722.97;;;19.22;40.31
62055;BME280;48653;51.742;-1.256;2023-09-30T12:10:19;101712.79;;;20.06;40.40
62055;BME280;48653;51.742;-1.256;2023-09-30T12:12:44;101713.75;;;20.62;39.56
62055;BME280;48653;51.742;-1.256;2023-09-30T12:15:10;101700.37;;;18.05;42.44
62055;BME280;48653;51.742;-1.256;2023-09-30T12:17:36;101693.64;;;18.74;42.03
62055;BME280;48653;51.742;-1.256;2023-09-30T12:20:02;101689.24;;;19.96;40.16
62055;BME280;48653;51.742;-1.256;2023-09-30T12:22:27;101695.71;;;19.19;40.75
62055;BME280;48653;51.742;-1.256;2023-09-30T12:24:53;101699.85;;;19.85;39.98
62055;BME280;48653;51.742;-1.256;2023-09-30T12:27:19;101701.94;;;19.75;40.54
62055;BME280;48653;51.742;-1.256;2023-09-30T12:29:45;101694.83;;;19.94;40.09
62055;BME280;48653;51.742;-1.256;2023-09-30T12:32:10;101711.18;;;19.17;40.52
62055;BME280;48653;51.742;-1.256;2023-09-30T12:34:36;101705.80;;;19.56;41.00
62055;BME280;48653;51.742;-1.256;2023-09-30T12:37:01;101705.41;;;18.60;41.11
62055;BME280;48653;51.742;-1.256;2023-09-30T12:39:26;101699.97;;;19.55;41.08
62055;BME280;48653;51.742;-1.256;2023-09-30T12:41:52;101699.37;;;20.58;40.49
62055;BME280;48653;51.742;-1.256;2023-09-30T12:44:18;101692.13;;;20.14;40.46